Time;durP1;ratioP1;P1;durP2;ratioP2;P2;SDS_P1;SDS_P2;PMS_P1;PMS_P2;Temp;Humidity;BMP_temperature;BMP_pressure;BME280_temperature;BME280_humidity;BME280_pressure;Samples;Min_cycle;Max_cycle;Signal;HPM_P1;HPM_P2
2022/05/24 00:07:57;;;;;;;;;;;;;;;;;;;;;
2022/05/24 00:23:07;;;;;;;6.28;4.25;;;;;;;16.59;47.95;99641.61;1704997;114;25969;-74
2022/05/24 00:27:09;;;;;;;5.05;4.30;;;;;;;16.49;48.10;99624.61;1738152;113;25892;-74
2022/05/24 00:31:04;;;;;;;;;;;;;;;;;;;;;
2022/05/24 00:34:50;;;;;;;5.90;3.50;;;;;;;16.43;48.33;99626.45;1733184;110;25943;-74
2022/05/24 00:51:47;;;;;;;6.80;3.85;;;;;;;16.27;48.66;99629.28;1750760;111;26025;-73
2022/05/24 00:55:16;;;;;;;6.72;4.35;;;;;;;16.23;48.80;99615.75;1758009;110;25709;-73
2022/05/24 00:58:59;;;;;;;5.40;3.90;;;;;;;16.19;48.82;99618.41;1756561;111;25892;-74
2022/05/24 01:02:22;;;;;;;11.93;4.37;;;;;;;16.13;48.93;99612.80;1757804;111;25949;-73
2022/05/24 01:05:44;;;;;;;4.90;4.45;;;;;;;16.09;49.07;99618.09;1767804;110;25915;-74
2022/05/24 01:09:09;;;;;;;7.28;4.78;;;;;;;16.07;49.17;99622.06;1779712;108;25891;-77
2022/05/24 01:12:36;;;;;;;6.22;3.75;;;;;;;16.02;49.28;99619.47;1844646;106;25854;-77
2022/05/24 01:15:58;;;;;;;7.78;4.53;;;;;;;15.97;49.34;99619.97;1851076;106;25842;-75
2022/05/24 01:19:29;;;;;;;7.67;4.67;;;;;;;15.94;49.45;99617.38;1812297;107;31363;-75
2022/05/24 01:23:41;;;;;;;5.87;4.67;;;;;;;15.91;49.58;99610.83;1875697;104;25856;-80
2022/05/24 01:27:02;;;;;;;5.30;4.72;;;;;;;15.87;49.65;99610.89;1943047;101;25742;-76
2022/05/24 01:30:23;;;;;;;4.95;4.35;;;;;;;15.81;49.82;99611.36;2001728;95;25872;-74
2022/05/24 01:37:27;;;;;;;8.18;4.47;;;;;;;15.74;50.00;99607.06;2061548;95;25951;-77
2022/05/24 01:40:51;;;;;;;8.65;4.03;;;;;;;15.72;50.08;99616.70;2063068;94;25752;-75
2022/05/24 01:44:14;;;;;;;13.40;5.87;;;;;;;15.71;50.19;99612.79;2063568;94;25739;-77
2022/05/24 01:47:42;;;;;;;6.42;4.15;;;;;;;15.68;50.26;99622.88;2063706;94;25662;-78
2022/05/24 01:51:06;;;;;;;5.25;4.33;;;;;;;15.66;50.31;99610.22;2063562;95;25758;-75
2022/05/24 01:54:30;;;;;;;6.00;3.85;;;;;;;15.63;50.40;99610.66;2063655;95;25773;-78
2022/05/24 01:57:55;;;;;;;4.10;3.65;;;;;;;15.58;50.52;99606.29;2090899;93;25777;-82
2022/05/24 02:01:30;;;;;;;5.65;3.75;;;;;;;15.55;50.58;99602.38;2110543;93;25997;-77
2022/05/24 02:04:51;;;;;;;4.40;3.95;;;;;;;15.53;50.68;99598.91;2110220;93;25769;-72
2022/05/24 02:08:13;;;;;;;7.70;4.30;;;;;;;15.51;50.73;99601.11;2110510;93;25729;-79
2022/05/24 02:11:34;;;;;;;4.22;3.50;;;;;;;15.47;50.83;99598.96;2110147;93;25752;-81
2022/05/24 02:15:08;;;;;;;9.63;3.85;;;;;;;15.43;50.86;99603.81;2110480;93;25716;-77
2022/05/24 02:18:30;;;;;;;4.10;3.70;;;;;;;15.39;51.00;99602.11;2110379;93;25761;-74
2022/05/24 02:21:56;;;;;;;6.55;4.40;;;;;;;15.35;51.06;99603.89;2110572;93;25711;-74
2022/05/24 02:25:31;;;;;;;6.03;4.20;;;;;;;15.31;51.18;99598.21;2110383;93;26567;-74
2022/05/24 02:28:54;;;;;;;4.97;3.50;;;;;;;15.29;51.26;99592.56;2097734;93;25765;-75
2022/05/24 02:32:15;;;;;;;5.47;4.37;;;;;;;15.27;51.34;99593.00;2110245;93;26336;-79
2022/05/24 02:35:46;;;;;;;6.83;4.33;;;;;;;15.24;51.44;99594.34;2108345;93;31508;-78
2022/05/24 02:39:08;;;;;;;5.05;4.28;;;;;;;15.22;51.50;99588.22;2104896;92;25767;-76
2022/05/24 02:42:50;;;;;;;5.22;4.50;;;;;;;15.20;51.60;99593.94;2104325;94;26648;-75
2022/05/24 02:46:16;;;;;;;7.37;4.08;;;;;;;15.19;51.71;99594.84;2134979;92;25737;-76
2022/05/24 02:49:44;;;;;;;4.60;3.75;;;;;;;15.15;51.80;99586.53;2137580;91;25780;-73
2022/05/24 02:53:07;;;;;;;5.17;4.15;;;;;;;15.13;51.85;99578.67;2137724;92;25908;-74
2022/05/24 02:56:28;;;;;;;7.62;4.65;;;;;;;15.11;51.94;99577.36;2137369;92;25849;-74
2022/05/24 02:59:50;;;;;;;6.78;4.55;;;;;;;15.09;52.05;99565.16;2137347;92;25789;-74
2022/05/24 03:03:10;;;;;;;5.55;4.28;;;;;;;15.07;52.09;99571.71;2137746;92;30983;-75
2022/05/24 03:09:33;;;;;;;5.70;3.93;;;;;;;15.09;52.23;99566.47;2137248;92;29134;-73
2022/05/24 03:09:54;;;;;;;4.33;3.90;;;;;;;15.07;52.25;99569.08;2137354;92;25808;-73
2022/05/24 03:18:12;;;;;;;5.78;4.12;;;;;;;15.07;52.38;99570.84;2137418;92;25673;-76
2022/05/24 03:22:12;;;;;;;;;;;;;;;;;;;;;
2022/05/24 03:34:21;;;;;;;5.53;4.10;;;;;;;15.14;52.46;99573.84;2146992;90;26403;-75
2022/05/24 03:41:46;;;;;;;;;;;;;;;;;;;;;
2022/05/24 03:45:11;;;;;;;7.90;3.72;;;;;;;15.22;52.53;99573.77;1986193;99;25938;-80
2022/05/24 03:48:32;;;;;;;7.08;3.62;;;;;;;15.24;52.57;99567.64;1986685;99;25817;-77
2022/05/24 03:51:53;;;;;;;6.28;3.85;;;;;;;15.27;52.58;99570.23;1986732;99;25867;-73
2022/05/24 03:55:14;;;;;;;5.58;3.83;;;;;;;15.29;52.62;99564.55;1986706;98;31121;-73
2022/05/24 03:58:35;;;;;;;4.35;3.95;;;;;;;15.32;52.70;99565.83;1984033;99;30973;-73
2022/05/24 04:01:56;;;;;;;5.53;3.62;;;;;;;15.33;52.66;99560.14;1904429;102;26115;-75
2022/05/24 04:05:18;;;;;;;4.17;3.50;;;;;;;15.37;52.77;99563.16;1955004;100;25768;-73
2022/05/24 04:08:39;;;;;;;5.87;3.67;;;;;;;15.40;52.74;99563.13;1961242;99;25777;-74
2022/05/24 04:12:51;;;;;;;8.73;4.25;;;;;;;15.46;52.78;99560.91;1953476;100;25735;-73
2022/05/24 04:16:11;;;;;;;5.22;3.67;;;;;;;15.48;52.80;99553.41;1972834;98;25710;-74
2022/05/24 04:19:32;;;;;;;4.53;3.58;;;;;;;15.55;52.80;99555.53;1952498;99;31433;-72
2022/05/24 04:22:56;;;;;;;5.58;4.53;;;;;;;15.61;52.75;99562.05;2026177;97;25721;-73
2022/05/24 04:26:17;;;;;;;7.72;4.35;;;;;;;15.65;52.77;99565.52;2050610;96;25963;-73
2022/05/24 04:30:00;;;;;;;7.83;4.22;;;;;;;15.67;52.73;99565.09;2056223;96;25765;-73
2022/05/24 04:33:21;;;;;;;4.65;3.52;;;;;;;15.72;52.75;99561.97;2056074;94;25955;-75
2022/05/24 04:36:43;;;;;;;4.58;4.10;;;;;;;15.78;52.71;99564.09;2047656;96;25689;-73
2022/05/24 04:42:18;;;;;;;4.05;3.62;;;;;;;15.81;52.67;99562.74;2047174;91;30926;-75
2022/05/24 04:43:48;;;;;;;4.08;3.37;;;;;;;15.87;52.63;99569.70;2119502;93;25335;-75
2022/05/24 04:47:09;;;;;;;10.25;3.58;;;;;;;15.93;52.64;99565.70;2122720;93;30963;-73
2022/05/24 04:50:30;;;;;;;5.15;3.95;;;;;;;16.01;52.57;99557.72;2123015;93;25845;-73
2022/05/24 04:53:59;;;;;;;5.15;4.00;;;;;;;16.09;52.54;99556.30;2122811;93;25780;-73
2022/05/24 04:57:21;;;;;;;5.15;3.20;;;;;;;16.16;52.50;99562.77;2122701;93;25740;-74
2022/05/24 05:00:42;;;;;;;5.50;2.90;;;;;;;16.26;52.37;99563.53;2123313;91;25815;-73
2022/05/24 05:04:03;;;;;;;6.08;3.55;;;;;;;16.39;52.31;99568.20;2122960;93;25821;-74
2022/05/24 05:07:24;;;;;;;8.00;3.47;;;;;;;16.51;52.04;99564.96;2122814;93;25926;-73
2022/05/24 05:10:47;;;;;;;6.80;3.10;;;;;;;16.68;51.80;99570.44;2122447;93;25727;-77
2022/05/24 05:14:10;;;;;;;3.22;2.90;;;;;;;16.84;51.50;99572.00;2122563;93;26378;-76
2022/05/24 05:17:32;;;;;;;5.00;3.12;;;;;;;16.96;51.27;99575.74;2122641;93;25733;-74
2022/05/24 05:20:53;;;;;;;4.78;3.60;;;;;;;17.07;51.07;99572.94;2122881;93;25765;-73
2022/05/24 05:24:14;;;;;;;6.17;3.40;;;;;;;17.18;50.85;99568.84;2122928;93;30927;-73
2022/05/24 05:27:34;;;;;;;8.20;3.40;;;;;;;17.30;50.79;99579.16;2122954;93;30860;-72
2022/05/24 05:34:48;;;;;;;6.42;3.58;;;;;;;17.56;50.35;99580.48;2147725;91;26406;-73
2022/05/24 05:38:10;;;;;;;7.30;3.17;;;;;;;17.72;50.18;99581.95;2250923;87;25737;-74
2022/05/24 05:41:31;;;;;;;5.42;2.92;;;;;;;17.86;50.00;99587.86;2251044;87;26009;-74
2022/05/24 05:44:53;;;;;;;3.22;2.92;;;;;;;18.01;49.58;99574.83;2251730;87;25683;-74
2022/05/24 05:48:16;;;;;;;3.52;2.95;;;;;;;18.14;49.20;99575.45;2251172;87;25699;-74
2022/05/24 05:51:37;;;;;;;4.03;2.62;;;;;;;18.22;48.88;99573.52;2251766;87;25679;-81
2022/05/24 05:54:58;;;;;;;4.90;2.95;;;;;;;18.33;48.53;99568.91;2251174;86;25655;-74
2022/05/24 05:58:21;;;;;;;5.37;2.70;;;;;;;18.46;48.08;99577.86;2251720;87;25677;-76
2022/05/24 06:01:50;;;;;;;7.30;3.30;;;;;;;18.63;47.83;99567.83;2251299;87;25734;-75
2022/05/24 06:05:11;;;;;;;2.50;2.30;;;;;;;18.80;47.64;99567.03;2250783;87;25783;-72
2022/05/24 06:08:32;;;;;;;4.15;2.87;;;;;;;18.87;47.23;99569.08;2251494;87;25790;-74
2022/05/24 06:11:56;;;;;;;5.83;2.08;;;;;;;18.98;46.91;99559.58;2250968;87;25777;-73
2022/05/24 06:15:19;;;;;;;2.10;1.90;;;;;;;19.16;46.43;99564.40;2251399;87;25683;-77
2022/05/24 06:18:40;;;;;;;5.72;2.27;;;;;;;19.32;46.22;99558.28;2251323;87;25755;-74
2022/05/24 06:22:35;;;;;;;7.15;2.75;;;;;;;19.46;46.31;99561.90;2251541;87;25711;-73
2022/05/24 06:26:10;;;;;;;11.28;2.17;;;;;;;19.72;46.03;99570.05;2138250;92;25764;-74
2022/05/24 06:34:29;;;;;;;3.77;2.08;;;;;;;20.40;45.09;99570.34;2006122;96;25807;-78
2022/05/24 06:37:48;;;;;;;10.05;2.20;;;;;;;20.73;44.57;99574.25;1982332;98;25844;-74
2022/05/24 06:41:27;;;;;;;3.72;2.10;;;;;;;21.10;43.94;99574.41;2020849;96;25824;-74
2022/05/24 06:45:15;;;;;;;7.15;1.60;;;;;;;21.46;43.08;99574.98;2019852;96;25710;-74
2022/05/24 06:49:11;;;;;;;6.83;1.80;;;;;;;21.74;42.34;99578.05;1913371;100;25826;-75
2022/05/24 06:53:12;;;;;;;2.17;1.72;;;;;;;22.04;42.02;99569.42;1916701;101;26114;-75
2022/05/24 07:05:21;;;;;;;11.35;1.42;;;;;;;23.30;39.75;99577.44;1864487;103;25855;-76
2022/05/24 07:08:56;;;;;;;2.98;1.07;;;;;;;23.71;38.95;99579.70;1860330;106;25822;-76
2022/05/24 07:32:09;;;;;;;;;;;;;;;;;;;;;
2022/05/24 07:35:54;;;;;;;;;;;;;;;;;;;;;
2022/05/24 07:39:48;;;;;;;9.28;1.00;;;;;;;27.18;33.16;99561.86;1726856;110;25906;-75
2022/05/24 07:47:50;;;;;;;3.87;1.20;;;;;;;28.05;32.19;99562.50;1780000;109;25927;-75
2022/05/24 07:51:39;;;;;;;2.00;0.98;;;;;;;28.41;31.53;99556.67;1836024;105;25875;-83
2022/05/24 07:59:47;;;;;;;;;;;;;;;;;;;;;
2022/05/24 08:08:05;;;;;;;;;;;;;;;;;;;;;
2022/05/24 08:34:24;;;;;;;3.87;1.10;;;;;;;31.88;25.11;99594.30;2556299;77;25514;-74
2022/05/24 08:37:45;;;;;;;9.40;2.30;;;;;;;31.74;24.93;99593.98;2503200;78;25624;-75
2022/05/24 08:41:33;;;;;;;3.47;1.10;;;;;;;31.48;25.05;99594.63;2508205;78;25617;-77
2022/05/24 08:53:35;;;;;;;1.25;0.90;;;;;;;31.06;25.08;99596.84;2099550;92;25725;-76
2022/05/24 08:57:44;;;;;;;2.15;1.10;;;;;;;31.09;24.94;99587.69;2046270;95;25824;-76
2022/05/24 09:01:35;;;;;;;;;;;;;;;;;;;;;
2022/05/24 09:04:58;;;;;;;4.95;1.00;;;;;;;30.99;25.00;99597.78;1975189;97;25816;-76
2022/05/24 09:09:16;;;;;;;3.25;1.12;;;;;;;31.20;24.96;99576.97;1975090;99;25714;-77
2022/05/24 09:13:17;;;;;;;5.12;1.10;;;;;;;31.45;24.87;99585.42;1975255;100;25803;-77
2022/05/24 09:17:39;;;;;;;1.98;1.12;;;;;;;31.48;24.72;99569.03;1973424;98;25779;-77
2022/05/24 09:21:37;;;;;;;6.67;1.00;;;;;;;31.59;24.85;99570.44;2013426;95;25835;-76
2022/05/24 09:25:13;;;;;;;7.50;1.30;;;;;;;31.76;24.62;99571.84;2070021;92;25784;-77
2022/05/24 09:29:09;;;;;;;2.73;1.33;;;;;;;31.81;24.63;99557.99;2066526;91;25749;-77
2022/05/24 09:32:45;;;;;;;4.70;1.00;;;;;;;31.91;24.33;99553.14;2068228;92;25801;-77
2022/05/24 09:36:33;;;;;;;4.10;1.35;;;;;;;31.93;24.28;99561.98;2072628;95;25722;-76
2022/05/24 09:40:05;;;;;;;1.70;1.07;;;;;;;31.90;24.31;99544.69;2074082;92;30963;-78
2022/05/24 09:43:40;;;;;;;1.30;0.82;;;;;;;31.96;24.20;99548.26;2121986;93;25800;-77
2022/05/24 09:47:55;;;;;;;2.45;1.20;;;;;;;32.12;24.20;99549.23;2131268;91;25785;-76
2022/05/24 09:51:48;;;;;;;5.28;1.12;;;;;;;32.13;23.81;99533.91;2266325;81;25669;-77
2022/05/24 09:55:10;;;;;;;2.75;1.30;;;;;;;32.19;23.90;99538.81;2381568;81;26328;-76
2022/05/24 09:58:59;;;;;;;3.85;0.90;;;;;;;32.14;23.82;99543.73;2429571;80;26173;-76
2022/05/24 10:02:34;;;;;;;3.72;1.10;;;;;;;31.97;23.58;99545.92;2429996;81;25690;-77
2022/05/24 10:06:33;;;;;;;3.25;1.07;;;;;;;31.69;23.60;99543.62;2427003;81;25706;-76
2022/05/24 10:10:29;;;;;;;3.30;1.05;;;;;;;31.47;23.74;99547.12;2428448;81;25705;-77
2022/05/24 10:14:48;;;;;;;4.87;0.95;;;;;;;31.36;23.96;99541.70;2427608;81;25653;-76
2022/05/24 10:18:43;;;;;;;1.27;1.00;;;;;;;31.17;24.18;99541.70;2428341;81;25687;-78
2022/05/24 10:23:05;;;;;;;3.05;0.98;;;;;;;30.91;24.23;99541.44;2428168;81;25687;-76
2022/05/24 10:31:36;;;;;;;1.07;0.80;;;;;;;30.34;24.37;99524.03;2305378;84;25733;-76
2022/05/24 10:40:30;;;;;;;3.02;1.55;;;;;;;29.73;24.76;99532.37;2298637;86;25286;-75
2022/05/24 10:44:16;;;;;;;1.50;1.02;;;;;;;29.47;24.88;99522.92;2297758;83;25694;-76
2022/05/24 10:48:09;;;;;;;1.75;1.20;;;;;;;29.32;24.97;99521.27;2310286;84;25789;-77
2022/05/24 10:52:18;;;;;;;;;;;;;;;;;;;;;
2022/05/24 10:56:29;;;;;;;3.90;1.10;;;;;;;28.92;25.16;99510.48;2338411;84;25687;-78
2022/05/24 11:00:36;;;;;;;2.55;0.98;;;;;;;28.89;25.28;99514.70;2328213;78;25771;-78
2022/05/24 11:04:57;;;;;;;;;;;;;;;;;;;;;
2022/05/24 11:08:53;;;;;;;1.20;1.00;;;;;;;28.86;25.50;99517.13;2419569;81;25733;-78
2022/05/24 11:16:53;;;;;;;1.87;0.90;;;;;;;28.67;25.55;99508.08;2329894;84;25946;-78
2022/05/24 11:20:54;;;;;;;3.75;0.82;;;;;;;28.56;25.73;99513.28;2281610;85;25963;-78
2022/05/24 11:24:49;;;;;;;5.30;1.70;;;;;;;28.35;25.96;99516.84;2200234;88;26381;-78
2022/05/24 11:28:53;;;;;;;2.37;1.00;;;;;;;28.04;26.16;99515.69;2115523;92;25839;-80
2022/05/24 11:33:14;;;;;;;4.55;0.90;;;;;;;27.67;26.39;99512.56;2026750;96;25889;-79
2022/05/24 11:43:11;;;;;;;3.85;1.20;;;;;;;27.17;26.91;99514.66;1839535;106;26866;-77
2022/05/24 11:47:13;;;;;;;4.40;0.90;;;;;;;27.02;27.13;99516.37;1814635;108;26138;-80
2022/05/24 11:50:53;;;;;;;2.92;0.90;;;;;;;27.01;27.19;99528.51;1809303;106;26054;-80
2022/05/24 11:59:36;;;;;;;2.02;0.68;;;;;;;26.98;27.16;99529.54;1820177;107;25474;-81
2022/05/24 12:11:41;;;;;;;12.90;1.00;;;;;;;27.18;26.85;99507.48;1966109;99;25521;-79
2022/05/24 12:15:40;;;;;;;1.40;0.95;;;;;;;27.24;26.94;99511.15;1981655;98;26062;-78
2022/05/24 12:20:05;;;;;;;1.60;0.90;;;;;;;27.31;26.86;99504.48;2065990;95;25894;-78
2022/05/24 12:23:46;;;;;;;3.10;1.37;;;;;;;27.44;26.73;99509.48;2067209;92;25813;-80
2022/05/24 12:31:44;;;;;;;4.72;1.30;;;;;;;27.53;26.82;99513.41;1884582;104;26203;-79
2022/05/24 12:35:30;;;;;;;;;;;;;;;;;;;;;
2022/05/24 12:39:37;;;;;;;1.27;1.17;;;;;;;27.51;27.03;99512.66;1890003;101;26480;-79
2022/05/24 12:44:02;;;;;;;3.08;1.07;;;;;;;27.40;27.14;99509.73;1934709;100;25871;-79
2022/05/24 12:48:20;;;;;;;;;;;;;;;;;;;;;
2022/05/24 13:00:34;;;;;;;3.95;1.35;;;;;;;27.09;27.50;99491.45;1875768;103;25893;-80
2022/05/24 13:26:28;;;;;;;;;;;;;;;;;;;;;
2022/05/24 13:34:46;;;;;;;3.77;1.00;;;;;;;25.75;28.60;99503.34;1699673;114;26774;-78
2022/05/24 13:38:35;;;;;;;3.55;0.80;;;;;;;25.62;28.72;99492.92;1693866;115;25967;-78
2022/05/24 13:47:17;;;;;;;;;;;;;;;;;;;;;
2022/05/24 13:51:11;;;;;;;4.40;0.95;;;;;;;25.32;29.28;99503.38;1677233;115;26180;-78
2022/05/24 13:54:52;;;;;;;4.42;1.00;;;;;;;25.23;29.44;99504.70;1668049;115;26072;-78
2022/05/24 13:58:38;;;;;;;2.25;0.65;;;;;;;25.18;29.68;99503.61;1775681;110;25868;-72
2022/05/24 14:02:19;;;;;;;2.25;0.98;;;;;;;24.90;29.60;99502.73;1784703;108;26590;-71
2022/05/24 14:05:40;;;;;;;5.10;0.93;;;;;;;24.03;30.58;99499.75;1826527;107;25948;-71
2022/05/24 14:09:03;;;;;;;4.22;1.25;;;;;;;23.53;31.19;99490.01;1827061;108;25370;-72
2022/05/24 14:12:25;;;;;;;3.15;1.10;;;;;;;23.16;31.79;99490.27;1827018;108;26168;-71
2022/05/24 14:15:45;;;;;;;2.10;0.95;;;;;;;22.90;32.33;99491.31;1826974;105;25617;-72
2022/05/24 14:19:09;;;;;;;8.38;1.27;;;;;;;22.57;32.91;99491.73;1826640;108;25886;-71
2022/05/24 14:22:32;;;;;;;4.65;1.32;;;;;;;22.40;32.95;99488.88;1844224;105;25838;-70
2022/05/24 14:26:06;;;;;;;4.10;1.00;;;;;;;22.13;33.52;99487.66;1875366;105;25846;-72
2022/05/24 14:29:32;;;;;;;2.00;0.98;;;;;;;22.11;33.65;99489.53;1884761;102;25865;-70
2022/05/24 14:32:59;;;;;;;6.17;1.20;;;;;;;22.13;33.70;99488.98;1906247;98;25827;-70
2022/05/24 14:36:16;;;;;;;6.00;0.93;;;;;;;22.20;33.88;99482.16;2000418;96;25790;-70
2022/05/24 14:39:37;;;;;;;5.65;2.10;;;;;;;22.26;34.03;99485.44;2046172;96;25822;-71
2022/05/24 14:43:27;;;;;;;7.28;1.12;;;;;;;22.24;33.92;99482.00;2142877;91;25786;-71
2022/05/24 14:46:45;;;;;;;6.40;0.95;;;;;;;22.14;33.78;99484.11;2165923;91;25763;-72
2022/05/24 14:50:14;;;;;;;5.72;0.93;;;;;;;21.97;33.89;99483.88;2165767;91;25667;-71
2022/05/24 14:53:43;;;;;;;2.55;0.80;;;;;;;21.95;34.13;99487.05;2165878;91;25735;-72
2022/05/24 14:57:34;;;;;;;8.83;1.02;;;;;;;21.90;33.93;99483.25;2165521;91;25834;-72
2022/05/24 15:00:55;;;;;;;4.85;1.82;;;;;;;21.88;33.88;99485.55;2134638;92;25857;-72
2022/05/24 15:04:18;;;;;;;0.80;0.60;;;;;;;21.74;34.16;99474.11;2134970;92;25701;-72
2022/05/24 15:15:47;;;;;;;1.00;0.70;;;;;;;21.83;34.29;99480.39;2134033;92;25864;-73
2022/05/24 15:19:20;;;;;;;1.95;0.80;;;;;;;21.98;34.25;99473.66;2009859;97;25739;-72
2022/05/24 15:23:13;;;;;;;2.95;0.75;;;;;;;22.10;34.53;99478.48;1999934;98;25798;-72
2022/05/24 15:26:42;;;;;;;5.37;1.07;;;;;;;21.90;34.52;99483.67;1992248;98;26170;-73
2022/05/24 15:30:15;;;;;;;5.00;0.80;;;;;;;21.90;34.71;99479.27;1998017;97;25938;-72
2022/05/24 15:33:36;;;;;;;1.40;0.82;;;;;;;21.91;34.76;99484.10;1991627;98;25871;-73
2022/05/24 15:36:57;;;;;;;4.58;0.90;;;;;;;21.73;35.14;99487.42;1995972;98;25817;-73
2022/05/24 15:40:28;;;;;;;5.22;0.98;;;;;;;21.59;35.43;99479.95;1992594;98;25931;-73
2022/05/24 15:43:57;;;;;;;1.12;1.00;;;;;;;21.52;35.61;99479.31;1996569;98;25855;-73
2022/05/24 15:47:21;;;;;;;1.35;1.00;;;;;;;21.44;36.50;99482.70;2000556;98;26054;-73
2022/05/24 15:50:45;;;;;;;3.67;0.98;;;;;;;21.44;36.50;99482.70;2004338;98;25823;-72
2022/05/24 15:54:20;;;;;;;1.60;1.00;;;;;;;21.24;36.97;99466.14;1989276;92;26553;-73
2022/05/24 15:57:48;;;;;;;2.20;0.80;;;;;;;21.24;36.97;99466.14;2132113;92;26029;-73
2022/05/24 16:01:17;;;;;;;1.17;1.00;;;;;;;21.33;37.22;99487.47;2131869;92;25719;-72
2022/05/24 16:12:25;;;;;;;5.12;1.10;;;;;;;21.13;37.79;99489.05;2131179;92;25815;-73
2022/05/24 16:16:01;;;;;;;1.37;0.95;;;;;;;21.05;37.92;99485.77;2132455;92;25791;-73
2022/05/24 16:19:42;;;;;;;5.03;1.05;;;;;;;21.09;37.98;99487.84;2129081;92;25807;-73
2022/05/24 16:23:06;;;;;;;4.83;1.37;;;;;;;21.05;38.22;99477.81;2129568;92;25706;-71
2022/05/24 16:26:27;;;;;;;1.45;0.98;;;;;;;20.89;38.44;99484.11;2131017;92;25706;-71
2022/05/24 16:30:05;;;;;;;2.12;1.12;;;;;;;20.82;38.72;99485.20;2128195;92;25777;-72
2022/05/24 16:33:26;;;;;;;2.00;1.07;;;;;;;20.81;38.71;99496.72;2063792;95;25339;-72
2022/05/24 16:36:47;;;;;;;1.50;1.00;;;;;;;20.83;38.99;99494.03;2064042;95;25823;-72
2022/05/24 16:40:21;;;;;;;2.72;1.35;;;;;;;20.77;39.13;99505.69;2068513;94;25852;-72
2022/05/24 16:43:42;;;;;;;6.03;1.20;;;;;;;20.70;39.29;99508.13;2098606;94;25991;-72
2022/05/24 16:47:06;;;;;;;3.47;1.25;;;;;;;20.65;39.48;99513.55;2091080;94;26462;-72
2022/05/24 16:50:28;;;;;;;3.87;1.10;;;;;;;20.59;39.58;99509.80;2067965;95;25884;-72
2022/05/24 16:53:52;;;;;;;5.50;1.20;;;;;;;20.56;39.74;99516.97;2067488;95;25756;-72
2022/05/24 17:04:58;;;;;;;3.65;1.50;;;;;;;20.44;41.08;99522.13;1947323;100;25812;-69
2022/05/24 17:08:22;;;;;;;1.47;1.15;;;;;;;20.40;41.40;99534.59;1947747;101;26201;-69
2022/05/24 17:11:42;;;;;;;3.62;1.40;;;;;;;20.39;41.64;99535.98;1947366;101;25935;-69
2022/05/24 17:15:05;;;;;;;6.70;1.50;;;;;;;20.37;42.40;99541.30;1946220;101;25835;-68
2022/05/24 17:18:27;;;;;;;5.25;1.62;;;;;;;20.27;43.02;99530.12;1943414;101;25921;-69
2022/05/24 17:21:48;;;;;;;6.80;1.30;;;;;;;20.20;43.40;99539.62;1945679;101;25793;-69
2022/05/24 17:25:14;;;;;;;2.75;1.45;;;;;;;20.08;43.96;99532.02;1946042;101;25845;-70
2022/05/24 17:28:40;;;;;;;5.60;1.60;;;;;;;19.97;44.69;99537.63;1971468;96;25873;-71
2022/05/24 17:32:25;;;;;;;7.40;1.65;;;;;;;19.86;44.95;99553.80;2056537;96;25887;-70
2022/05/24 17:35:57;;;;;;;;;;;;;;;;;;;;;
2022/05/24 17:39:31;;;;;;;6.47;1.62;;;;;;;19.69;46.13;99560.02;2055772;94;25901;-72
2022/05/24 17:43:17;;;;;;;1.70;1.57;;;;;;;19.70;46.65;99555.98;2055827;96;25899;-72
2022/05/24 17:46:39;;;;;;;2.37;1.77;;;;;;;19.69;47.24;99563.98;2055888;94;25740;-72
2022/05/24 17:50:03;;;;;;;4.05;2.58;;;;;;;19.66;48.05;99578.59;2055150;96;25775;-72
2022/05/24 17:53:27;;;;;;;3.52;2.05;;;;;;;19.59;49.18;99573.44;2056141;94;26173;-71
2022/05/24 17:56:49;;;;;;;6.72;1.90;;;;;;;19.54;49.56;99571.80;2053111;96;25892;-71
2022/05/24 18:00:11;;;;;;;5.45;3.02;;;;;;;19.53;50.15;99570.94;2031554;96;26119;-71
2022/05/24 18:03:34;;;;;;;5.05;2.15;;;;;;;19.47;50.04;99575.09;2048655;94;25780;-71
2022/05/24 18:06:55;;;;;;;3.72;2.45;;;;;;;19.44;50.48;99587.48;2066877;94;31496;-70
2022/05/24 18:10:19;;;;;;;8.05;3.00;;;;;;;19.51;50.80;99586.45;2105138;94;25797;-71
2022/05/24 18:13:39;;;;;;;3.37;2.58;;;;;;;19.57;51.48;99587.59;2105130;94;25766;-73
2022/05/24 18:17:00;;;;;;;9.43;2.83;;;;;;;19.44;52.35;99591.03;2086216;94;25900;-72
2022/05/24 18:20:23;;;;;;;8.13;3.17;;;;;;;19.41;52.79;99588.45;2104921;94;26007;-72
2022/05/24 18:23:56;;;;;;;6.05;3.17;;;;;;;19.46;53.12;99594.94;2104903;94;25835;-72
2022/05/24 18:35:03;;;;;;;5.25;2.92;;;;;;;18.99;55.24;99579.79;2072008;95;26597;-73
2022/05/24 18:38:26;;;;;;;3.47;2.72;;;;;;;18.76;56.03;99581.63;2125025;93;25828;-72
2022/05/24 18:41:59;;;;;;;5.75;2.70;;;;;;;18.75;56.18;99582.55;2122049;93;25804;-71
2022/05/24 18:45:20;;;;;;;7.40;2.98;;;;;;;18.83;56.26;99590.73;2094351;93;25808;-72
2022/05/24 18:48:57;;;;;;;;;;;;;;;;;;;;;
2022/05/24 18:52:18;;;;;;;7.58;2.65;;;;;;;18.93;55.90;99594.45;2094442;94;25812;-72
2022/05/24 18:55:43;;;;;;;5.28;2.70;;;;;;;18.94;55.71;99595.76;2075698;94;26008;-72
2022/05/24 18:59:12;;;;;;;4.72;2.52;;;;;;;18.87;56.03;99594.17;2098857;93;25821;-73
2022/05/24 19:02:37;;;;;;;4.30;2.87;;;;;;;18.87;55.95;99593.70;2098801;93;25760;-73
2022/05/24 19:05:58;;;;;;;4.35;2.70;;;;;;;18.97;55.94;99598.78;2099272;93;25848;-72
2022/05/24 19:09:25;;;;;;;3.55;2.72;;;;;;;19.04;55.78;99605.66;2095949;91;25946;-72
2022/05/24 19:12:53;;;;;;;4.33;3.35;;;;;;;19.16;55.91;99612.41;2131140;92;25668;-73
2022/05/24 19:16:16;;;;;;;6.95;3.15;;;;;;;19.26;55.95;99622.72;2131388;92;25330;-72
2022/05/24 19:19:45;;;;;;;5.47;3.15;;;;;;;19.41;56.09;99624.14;2131074;92;26071;-73
2022/05/24 19:23:08;;;;;;;4.28;3.85;;;;;;;19.55;56.39;99624.66;2131278;92;25819;-72
2022/05/24 19:26:29;;;;;;;8.63;4.47;;;;;;;19.62;56.75;99627.16;2131959;92;25756;-78
2022/05/24 19:29:53;;;;;;;13.70;4.30;;;;;;;19.69;56.76;99630.09;2136691;91;25539;-77
2022/05/24 19:33:26;;;;;;;7.97;3.77;;;;;;;19.94;56.47;99629.84;2195244;89;25697;-75
2022/05/24 19:36:51;;;;;;;7.83;4.50;;;;;;;20.18;55.88;99644.22;2201046;87;25701;-75
2022/05/24 19:44:04;;;;;;;4.20;3.00;;;;;;;20.49;54.95;99633.62;2200644;89;25784;-79
2022/05/24 19:47:26;;;;;;;5.72;3.70;;;;;;;20.60;54.52;99637.77;2201335;89;25695;-74
2022/05/24 19:50:49;;;;;;;5.70;3.90;;;;;;;20.66;54.14;99631.83;2201546;89;25702;-74
2022/05/24 19:54:18;;;;;;;5.83;3.42;;;;;;;20.57;54.15;99628.58;2201407;89;25784;-77
2022/05/24 19:57:42;;;;;;;4.08;3.30;;;;;;;20.39;54.49;99631.28;2193315;89;25761;-73
2022/05/24 20:01:02;;;;;;;7.08;4.08;;;;;;;20.21;54.88;99628.67;2186691;90;25729;-74
2022/05/24 20:04:42;;;;;;;5.12;3.37;;;;;;;20.05;55.37;99626.47;2186988;90;25693;-72
2022/05/24 20:08:07;;;;;;;4.35;3.30;;;;;;;19.90;55.76;99622.03;2186354;90;25742;-76
2022/05/24 20:11:37;;;;;;;4.15;3.75;;;;;;;19.75;56.06;99622.00;2113497;91;25849;-73
2022/05/24 20:15:08;;;;;;;7.25;2.92;;;;;;;19.66;56.40;99619.13;2173703;90;25820;-74
2022/05/24 20:18:46;;;;;;;5.97;2.80;;;;;;;19.59;56.59;99617.06;2114106;93;25814;-73
2022/05/24 20:22:13;;;;;;;3.65;2.50;;;;;;;19.52;56.87;99615.94;2117130;92;25789;-74
2022/05/24 20:25:33;;;;;;;6.20;2.95;;;;;;;19.44;57.00;99615.24;2118533;92;25756;-74
2022/05/24 20:29:10;;;;;;;6.50;2.52;;;;;;;19.37;57.10;99615.84;2099022;94;25823;-74
2022/05/24 20:32:42;;;;;;;4.72;2.33;;;;;;;19.31;57.20;99611.60;2079979;94;25761;-75
2022/05/24 20:36:05;;;;;;;3.33;2.45;;;;;;;19.28;57.25;99624.02;2089171;91;25830;-78
2022/05/24 20:39:31;;;;;;;3.27;2.15;;;;;;;19.24;57.33;99625.88;2129981;92;25810;-74
2022/05/24 20:42:52;;;;;;;3.22;2.50;;;;;;;19.21;57.34;99625.94;2111071;92;25955;-75
2022/05/24 20:46:26;;;;;;;4.65;1.95;;;;;;;19.21;57.39;99626.40;2130556;92;25730;-75
2022/05/24 20:49:51;;;;;;;4.42;2.50;;;;;;;19.20;57.41;99624.64;2129680;91;26055;-74
2022/05/24 20:53:12;;;;;;;4.65;2.37;;;;;;;19.17;57.46;99624.70;2140297;91;25706;-74
2022/05/24 20:56:33;;;;;;;4.28;2.55;;;;;;;19.14;57.51;99624.81;2144118;89;25761;-76
2022/05/24 20:59:54;;;;;;;3.22;2.40;;;;;;;19.10;57.57;99616.06;2190063;90;25271;-74
2022/05/24 21:03:15;;;;;;;3.47;2.22;;;;;;;19.07;57.62;99616.16;2190097;90;25833;-74
2022/05/24 21:06:37;;;;;;;2.50;2.30;;;;;;;19.02;57.77;99618.89;2186280;89;26576;-78
2022/05/24 21:10:10;;;;;;;5.12;2.33;;;;;;;19.00;57.92;99611.89;2190148;89;25857;-74
2022/05/24 21:13:56;;;;;;;2.20;1.98;;;;;;;18.97;57.96;99620.78;2233734;85;25718;-83
2022/05/24 21:17:24;;;;;;;6.72;2.10;;;;;;;18.94;58.05;99615.56;2322657;85;25643;-77
2022/05/24 21:20:45;;;;;;;4.65;2.40;;;;;;;18.90;58.19;99619.19;2321951;85;25233;-75